sensor_id;sensor_type;location;lat;lon;timestamp;P1;durP1;ratioP1;P2;durP2;ratioP2
26920;SDS011;14483;47.844;9.660;2022-11-15T00:01:14;3.10;;;1.20;;
26920;SDS011;14483;47.844;9.660;2022-11-15T00:03:41;2.45;;;1.00;;
26920;SDS011;14483;47.844;9.660;2022-11-15T00:06:08;2.15;;;1.10;;
26920;SDS011;14483;47.844;9.660;2022-11-15T00:08:34;1.60;;;0.80;;
26920;SDS011;14483;47.844;9.660;2022-11-15T00:11:02;2.00;;;0.98;;
26920;SDS011;14483;47.844;9.660;2022-11-15T00:13:29;1.42;;;0.70;;
26920;SDS011;14483;47.844;9.660;2022-11-15T00:15:57;2.22;;;0.80;;
26920;SDS011;14483;47.844;9.660;2022-11-15T00:18:24;2.47;;;0.90;;
26920;SDS011;14483;47.844;9.660;2022-11-15T00:20:50;1.77;;;0.85;;
26920;SDS011;14483;47.844;9.660;2022-11-15T00:23:17;1.02;;;0.80;;
26920;SDS011;14483;47.844;9.660;2022-11-15T00:25:43;3.70;;;0.77;;
26920;SDS011;14483;47.844;9.660;2022-11-15T00:28:09;1.77;;;1.02;;
26920;SDS011;14483;47.844;9.660;2022-11-15T00:30:36;2.50;;;1.35;;
26920;SDS011;14483;47.844;9.660;2022-11-15T00:33:04;2.95;;;0.80;;
26920;SDS011;14483;47.844;9.660;2022-11-15T00:35:31;2.08;;;0.80;;
26920;SDS011;14483;47.844;9.660;2022-11-15T00:37:58;3.28;;;0.90;;
26920;SDS011;14483;47.844;9.660;2022-11-15T00:40:24;7.22;;;2.30;;
26920;SDS011;14483;47.844;9.660;2022-11-15T00:42:50;5.72;;;2.08;;
26920;SDS011;14483;47.844;9.660;2022-11-15T00:45:17;8.50;;;2.72;;
26920;SDS011;14483;47.844;9.660;2022-11-15T00:47:43;6.88;;;2.53;;
26920;SDS011;14483;47.844;9.660;2022-11-15T00:50:11;4.72;;;2.53;;
26920;SDS011;14483;47.844;9.660;2022-11-15T00:52:38;3.63;;;1.85;;
26920;SDS011;14483;47.844;9.660;2022-11-15T00:55:04;7.65;;;3.28;;
26920;SDS011;14483;47.844;9.660;2022-11-15T00:57:31;5.30;;;2.55;;
26920;SDS011;14483;47.844;9.660;2022-11-15T00:59:57;5.78;;;1.95;;
26920;SDS011;14483;47.844;9.660;2022-11-15T01:02:24;10.38;;;1.70;;
26920;SDS011;14483;47.844;9.660;2022-11-15T01:04:50;2.08;;;0.85;;
26920;SDS011;14483;47.844;9.660;2022-11-15T01:07:18;3.70;;;2.03;;
26920;SDS011;14483;47.844;9.660;2022-11-15T01:09:44;2.83;;;1.38;;
26920;SDS011;14483;47.844;9.660;2022-11-15T01:12:10;3.28;;;1.10;;
26920;SDS011;14483;47.844;9.660;2022-11-15T01:14:37;1.10;;;0.80;;
26920;SDS011;14483;47.844;9.660;2022-11-15T01:17:03;2.25;;;0.90;;
26920;SDS011;14483;47.844;9.660;2022-11-15T01:19:29;3.55;;;1.00;;
26920;SDS011;14483;47.844;9.660;2022-11-15T01:21:56;3.65;;;1.00;;
26920;SDS011;14483;47.844;9.660;2022-11-15T01:24:23;2.38;;;0.90;;
26920;SDS011;14483;47.844;9.660;2022-11-15T01:26:50;2.40;;;1.15;;
26920;SDS011;14483;47.844;9.660;2022-11-15T01:29:16;1.85;;;0.85;;
26920;SDS011;14483;47.844;9.660;2022-11-15T01:31:43;1.60;;;1.00;;
26920;SDS011;14483;47.844;9.660;2022-11-15T01:34:09;8.10;;;2.35;;
26920;SDS011;14483;47.844;9.660;2022-11-15T01:36:36;5.20;;;1.20;;
26920;SDS011;14483;47.844;9.660;2022-11-15T01:39:02;1.33;;;0.63;;
26920;SDS011;14483;47.844;9.660;2022-11-15T01:41:31;2.42;;;0.80;;
26920;SDS011;14483;47.844;9.660;2022-11-15T01:46:39;4.95;;;0.98;;
26920;SDS011;14483;47.844;9.660;2022-11-15T01:49:10;2.17;;;0.80;;
26920;SDS011;14483;47.844;9.660;2022-11-15T01:51:37;1.92;;;0.82;;
26920;SDS011;14483;47.844;9.660;2022-11-15T01:54:04;2.45;;;0.90;;
26920;SDS011;14483;47.844;9.660;2022-11-15T01:56:36;1.88;;;0.88;;
26920;SDS011;14483;47.844;9.660;2022-11-15T01:59:04;1.67;;;0.80;;
26920;SDS011;14483;47.844;9.660;2022-11-15T02:01:32;1.33;;;0.80;;
26920;SDS011;14483;47.844;9.660;2022-11-15T02:04:01;1.73;;;0.93;;
26920;SDS011;14483;47.844;9.660;2022-11-15T02:06:30;1.65;;;0.80;;
26920;SDS011;14483;47.844;9.660;2022-11-15T02:08:56;1.95;;;0.85;;
26920;SDS011;14483;47.844;9.660;2022-11-15T02:11:23;2.03;;;1.00;;
26920;SDS011;14483;47.844;9.660;2022-11-15T02:13:51;2.50;;;0.93;;
26920;SDS011;14483;47.844;9.660;2022-11-15T02:16:25;1.58;;;0.80;;
26920;SDS011;14483;47.844;9.660;2022-11-15T02:18:55;1.60;;;0.88;;
26920;SDS011;14483;47.844;9.660;2022-11-15T02:21:25;2.03;;;1.02;;
26920;SDS011;14483;47.844;9.660;2022-11-15T02:29:27;1.63;;;0.93;;
26920;SDS011;14483;47.844;9.660;2022-11-15T02:31:59;2.60;;;1.17;;
26920;SDS011;14483;47.844;9.660;2022-11-15T02:34:31;3.35;;;1.20;;
26920;SDS011;14483;47.844;9.660;2022-11-15T02:37:00;1.73;;;1.00;;
26920;SDS011;14483;47.844;9.660;2022-11-15T02:39:29;2.67;;;1.27;;
26920;SDS011;14483;47.844;9.660;2022-11-15T02:42:00;2.72;;;1.40;;
26920;SDS011;14483;47.844;9.660;2022-11-15T02:44:30;1.90;;;0.82;;
26920;SDS011;14483;47.844;9.660;2022-11-15T02:46:59;2.40;;;1.30;;
26920;SDS011;14483;47.844;9.660;2022-11-15T02:49:42;2.65;;;1.33;;
26920;SDS011;14483;47.844;9.660;2022-11-15T02:52:13;2.15;;;1.05;;
26920;SDS011;14483;47.844;9.660;2022-11-15T02:54:40;1.90;;;1.08;;
26920;SDS011;14483;47.844;9.660;2022-11-15T02:57:10;4.03;;;0.93;;
26920;SDS011;14483;47.844;9.660;2022-11-15T02:59:43;2.28;;;1.30;;
26920;SDS011;14483;47.844;9.660;2022-11-15T03:02:18;4.22;;;1.27;;
26920;SDS011;14483;47.844;9.660;2022-11-15T03:04:50;2.90;;;1.40;;
26920;SDS011;14483;47.844;9.660;2022-11-15T03:07:19;2.17;;;1.17;;
26920;SDS011;14483;47.844;9.660;2022-11-15T03:09:50;2.53;;;1.25;;
26920;SDS011;14483;47.844;9.660;2022-11-15T03:12:20;2.83;;;1.27;;
26920;SDS011;14483;47.844;9.660;2022-11-15T03:14:51;3.10;;;1.50;;
26920;SDS011;14483;47.844;9.660;2022-11-15T03:17:23;5.22;;;1.70;;
26920;SDS011;14483;47.844;9.660;2022-11-15T03:19:50;3.22;;;1.50;;
26920;SDS011;14483;47.844;9.660;2022-11-15T03:22:17;2.53;;;1.38;;
26920;SDS011;14483;47.844;9.660;2022-11-15T03:24:45;2.25;;;1.45;;
26920;SDS011;14483;47.844;9.660;2022-11-15T03:27:14;2.08;;;1.40;;
26920;SDS011;14483;47.844;9.660;2022-11-15T03:29:42;3.10;;;1.40;;
26920;SDS011;14483;47.844;9.660;2022-11-15T03:32:12;4.43;;;1.55;;
26920;SDS011;14483;47.844;9.660;2022-11-15T03:34:41;2.50;;;1.40;;
26920;SDS011;14483;47.844;9.660;2022-11-15T03:37:09;4.72;;;1.90;;
26920;SDS011;14483;47.844;9.660;2022-11-15T03:39:37;3.13;;;1.33;;
26920;SDS011;14483;47.844;9.660;2022-11-15T03:42:06;3.40;;;1.75;;
26920;SDS011;14483;47.844;9.660;2022-11-15T03:44:36;2.15;;;1.15;;
26920;SDS011;14483;47.844;9.660;2022-11-15T03:47:06;3.05;;;1.60;;
26920;SDS011;14483;47.844;9.660;2022-11-15T03:49:33;2.60;;;1.23;;
26920;SDS011;14483;47.844;9.660;2022-11-15T03:52:02;2.00;;;1.00;;
26920;SDS011;14483;47.844;9.660;2022-11-15T03:54:29;2.55;;;1.33;;
26920;SDS011;14483;47.844;9.660;2022-11-15T03:56:56;2.35;;;1.20;;
26920;SDS011;14483;47.844;9.660;2022-11-15T03:59:23;3.20;;;1.58;;
26920;SDS011;14483;47.844;9.660;2022-11-15T04:01:49;3.95;;;1.27;;
26920;SDS011;14483;47.844;9.660;2022-11-15T04:04:15;3.90;;;2.00;;
26920;SDS011;14483;47.844;9.660;2022-11-15T04:06:42;4.65;;;1.67;;
26920;SDS011;14483;47.844;9.660;2022-11-15T04:09:09;2.95;;;1.50;;
26920;SDS011;14483;47.844;9.660;2022-11-15T04:11:36;4.68;;;2.03;;
26920;SDS011;14483;47.844;9.660;2022-11-15T04:14:02;4.38;;;1.63;;
26920;SDS011;14483;47.844;9.660;2022-11-15T04:16:28;2.15;;;1.25;;
26920;SDS011;14483;47.844;9.660;2022-11-15T04:18:55;2.35;;;1.40;;
26920;SDS011;14483;47.844;9.660;2022-11-15T04:21:35;3.05;;;1.27;;
26920;SDS011;14483;47.844;9.660;2022-11-15T04:24:17;2.83;;;1.33;;
26920;SDS011;14483;47.844;9.660;2022-11-15T04:26:43;5.05;;;1.90;;
26920;SDS011;14483;47.844;9.660;2022-11-15T04:29:10;3.05;;;1.73;;
26920;SDS011;14483;47.844;9.660;2022-11-15T04:31:54;2.25;;;1.27;;
26920;SDS011;14483;47.844;9.660;2022-11-15T04:34:20;5.80;;;1.73;;
26920;SDS011;14483;47.844;9.660;2022-11-15T04:36:47;3.42;;;1.63;;
26920;SDS011;14483;47.844;9.660;2022-11-15T04:39:31;2.90;;;1.33;;
26920;SDS011;14483;47.844;9.660;2022-11-15T04:41:58;3.42;;;1.55;;
26920;SDS011;14483;47.844;9.660;2022-11-15T04:44:24;2.72;;;1.35;;
26920;SDS011;14483;47.844;9.660;2022-11-15T04:46:50;4.47;;;1.40;;
26920;SDS011;14483;47.844;9.660;2022-11-15T04:49:17;4.18;;;1.33;;
26920;SDS011;14483;47.844;9.660;2022-11-15T04:51:43;3.88;;;1.35;;
26920;SDS011;14483;47.844;9.660;2022-11-15T04:54:10;2.75;;;1.30;;
26920;SDS011;14483;47.844;9.660;2022-11-15T04:56:37;2.45;;;1.30;;
26920;SDS011;14483;47.844;9.660;2022-11-15T04:59:04;2.67;;;1.30;;
26920;SDS011;14483;47.844;9.660;2022-11-15T05:01:30;6.15;;;1.55;;
26920;SDS011;14483;47.844;9.660;2022-11-15T05:03:57;1.73;;;1.10;;
26920;SDS011;14483;47.844;9.660;2022-11-15T05:06:40;5.10;;;1.08;;
26920;SDS011;14483;47.844;9.660;2022-11-15T05:09:07;1.77;;;0.95;;
26920;SDS011;14483;47.844;9.660;2022-11-15T05:11:33;1.70;;;0.82;;
26920;SDS011;14483;47.844;9.660;2022-11-15T05:14:01;2.30;;;1.13;;
26920;SDS011;14483;47.844;9.660;2022-11-15T05:16:27;3.38;;;1.25;;
26920;SDS011;14483;47.844;9.660;2022-11-15T05:18:54;2.15;;;1.10;;
26920;SDS011;14483;47.844;9.660;2022-11-15T05:21:20;5.13;;;1.08;;
26920;SDS011;14483;47.844;9.660;2022-11-15T05:23:47;3.38;;;1.50;;
26920;SDS011;14483;47.844;9.660;2022-11-15T05:26:15;2.78;;;1.20;;
26920;SDS011;14483;47.844;9.660;2022-11-15T05:28:42;2.33;;;1.23;;
26920;SDS011;14483;47.844;9.660;2022-11-15T05:31:10;6.70;;;1.50;;
26920;SDS011;14483;47.844;9.660;2022-11-15T05:33:37;2.03;;;1.17;;
26920;SDS011;14483;47.844;9.660;2022-11-15T05:36:05;2.35;;;1.00;;
26920;SDS011;14483;47.844;9.660;2022-11-15T05:38:32;5.90;;;1.08;;
26920;SDS011;14483;47.844;9.660;2022-11-15T05:40:59;5.75;;;1.20;;
26920;SDS011;14483;47.844;9.660;2022-11-15T05:43:25;2.53;;;1.30;;
26920;SDS011;14483;47.844;9.660;2022-11-15T05:45:52;4.68;;;1.60;;
26920;SDS011;14483;47.844;9.660;2022-11-15T05:48:20;3.80;;;1.80;;
26920;SDS011;14483;47.844;9.660;2022-11-15T05:50:46;2.88;;;1.55;;
26920;SDS011;14483;47.844;9.660;2022-11-15T05:53:14;3.85;;;2.00;;
26920;SDS011;14483;47.844;9.660;2022-11-15T05:55:41;4.68;;;1.80;;
26920;SDS011;14483;47.844;9.660;2022-11-15T05:58:08;2.75;;;1.55;;
26920;SDS011;14483;47.844;9.660;2022-11-15T06:00:34;4.05;;;1.85;;
26920;SDS011;14483;47.844;9.660;2022-11-15T06:03:00;6.82;;;2.65;;
26920;SDS011;14483;47.844;9.660;2022-11-15T06:05:28;15.13;;;4.13;;
26920;SDS011;14483;47.844;9.660;2022-11-15T06:07:56;28.05;;;9.60;;
26920;SDS011;14483;47.844;9.660;2022-11-15T06:10:23;28.02;;;10.82;;
26920;SDS011;14483;47.844;9.660;2022-11-15T06:12:55;14.98;;;5.60;;
26920;SDS011;14483;47.844;9.660;2022-11-15T06:15:22;7.87;;;3.33;;
26920;SDS011;14483;47.844;9.660;2022-11-15T06:17:48;13.38;;;4.50;;
26920;SDS011;14483;47.844;9.660;2022-11-15T06:20:14;33.60;;;11.23;;
26920;SDS011;14483;47.844;9.660;2022-11-15T06:22:42;10.40;;;4.85;;
26920;SDS011;14483;47.844;9.660;2022-11-15T06:25:08;4.63;;;2.58;;
26920;SDS011;14483;47.844;9.660;2022-11-15T06:27:35;5.47;;;2.70;;
26920;SDS011;14483;47.844;9.660;2022-11-15T06:30:01;8.75;;;2.60;;
26920;SDS011;14483;47.844;9.660;2022-11-15T06:32:28;8.48;;;3.17;;
26920;SDS011;14483;47.844;9.660;2022-11-15T06:34:55;5.97;;;3.33;;
26920;SDS011;14483;47.844;9.660;2022-11-15T06:37:21;9.15;;;3.90;;
26920;SDS011;14483;47.844;9.660;2022-11-15T06:39:49;4.85;;;3.00;;
26920;SDS011;14483;47.844;9.660;2022-11-15T06:42:15;13.35;;;6.72;;
26920;SDS011;14483;47.844;9.660;2022-11-15T06:44:41;11.00;;;5.45;;
26920;SDS011;14483;47.844;9.660;2022-11-15T06:47:08;9.10;;;4.47;;
26920;SDS011;14483;47.844;9.660;2022-11-15T06:49:34;9.25;;;4.45;;
26920;SDS011;14483;47.844;9.660;2022-11-15T06:52:00;10.20;;;4.00;;
26920;SDS011;14483;47.844;9.660;2022-11-15T06:54:27;12.30;;;5.75;;
26920;SDS011;14483;47.844;9.660;2022-11-15T06:56:54;11.05;;;5.57;;
26920;SDS011;14483;47.844;9.660;2022-11-15T06:59:21;10.50;;;4.50;;
26920;SDS011;14483;47.844;9.660;2022-11-15T07:01:47;11.43;;;5.13;;
26920;SDS011;14483;47.844;9.660;2022-11-15T07:04:15;8.05;;;4.22;;
26920;SDS011;14483;47.844;9.660;2022-11-15T07:06:41;8.10;;;3.25;;
26920;SDS011;14483;47.844;9.660;2022-11-15T07:09:07;5.38;;;2.88;;
26920;SDS011;14483;47.844;9.660;2022-11-15T07:11:34;7.22;;;3.17;;
26920;SDS011;14483;47.844;9.660;2022-11-15T07:14:01;5.50;;;2.50;;
26920;SDS011;14483;47.844;9.660;2022-11-15T07:16:28;5.32;;;3.45;;
26920;SDS011;14483;47.844;9.660;2022-11-15T07:18:54;5.80;;;3.63;;
26920;SDS011;14483;47.844;9.660;2022-11-15T07:21:20;3.80;;;2.75;;
26920;SDS011;14483;47.844;9.660;2022-11-15T07:23:47;6.15;;;2.08;;
26920;SDS011;14483;47.844;9.660;2022-11-15T07:26:13;4.00;;;1.92;;
26920;SDS011;14483;47.844;9.660;2022-11-15T07:28:39;3.25;;;1.80;;
26920;SDS011;14483;47.844;9.660;2022-11-15T07:31:08;6.85;;;2.13;;
26920;SDS011;14483;47.844;9.660;2022-11-15T07:33:34;4.13;;;1.92;;
26920;SDS011;14483;47.844;9.660;2022-11-15T07:36:01;3.80;;;1.80;;
26920;SDS011;14483;47.844;9.660;2022-11-15T07:38:27;4.15;;;2.42;;
26920;SDS011;14483;47.844;9.660;2022-11-15T07:40:57;3.95;;;2.10;;
26920;SDS011;14483;47.844;9.660;2022-11-15T07:43:24;3.85;;;2.13;;
26920;SDS011;14483;47.844;9.660;2022-11-15T07:45:50;3.65;;;2.10;;
26920;SDS011;14483;47.844;9.660;2022-11-15T07:48:18;3.90;;;2.20;;
26920;SDS011;14483;47.844;9.660;2022-11-15T07:50:44;4.22;;;2.47;;
26920;SDS011;14483;47.844;9.660;2022-11-15T07:53:11;5.03;;;2.17;;
26920;SDS011;14483;47.844;9.660;2022-11-15T07:55:39;6.22;;;2.25;;
26920;SDS011;14483;47.844;9.660;2022-11-15T07:58:06;5.68;;;2.25;;
26920;SDS011;14483;47.844;9.660;2022-11-15T08:00:33;4.30;;;2.60;;
26920;SDS011;14483;47.844;9.660;2022-11-15T08:03:03;7.15;;;2.85;;
26920;SDS011;14483;47.844;9.660;2022-11-15T08:05:31;7.22;;;2.83;;
26920;SDS011;14483;47.844;9.660;2022-11-15T08:07:58;12.18;;;2.78;;
26920;SDS011;14483;47.844;9.660;2022-11-15T08:10:24;7.15;;;3.15;;
26920;SDS011;14483;47.844;9.660;2022-11-15T08:12:56;6.28;;;3.38;;
26920;SDS011;14483;47.844;9.660;2022-11-15T08:15:22;6.20;;;3.28;;
26920;SDS011;14483;47.844;9.660;2022-11-15T08:17:52;10.73;;;3.83;;
26920;SDS011;14483;47.844;9.660;2022-11-15T08:20:19;8.55;;;3.35;;
26920;SDS011;14483;47.844;9.660;2022-11-15T08:22:47;7.90;;;2.88;;
26920;SDS011;14483;47.844;9.660;2022-11-15T08:25:13;9.27;;;3.50;;
26920;SDS011;14483;47.844;9.660;2022-11-15T08:27:39;5.65;;;3.40;;
26920;SDS011;14483;47.844;9.660;2022-11-15T08:30:06;6.68;;;3.53;;
26920;SDS011;14483;47.844;9.660;2022-11-15T08:32:33;6.70;;;3.53;;
26920;SDS011;14483;47.844;9.660;2022-11-15T08:34:59;8.68;;;4.50;;
26920;SDS011;14483;47.844;9.660;2022-11-15T08:37:25;6.57;;;3.65;;
26920;SDS011;14483;47.844;9.660;2022-11-15T08:39:53;12.43;;;4.63;;
26920;SDS011;14483;47.844;9.660;2022-11-15T08:42:19;6.55;;;3.28;;
26920;SDS011;14483;47.844;9.660;2022-11-15T08:44:46;8.40;;;3.65;;
26920;SDS011;14483;47.844;9.660;2022-11-15T08:47:12;7.25;;;3.92;;
26920;SDS011;14483;47.844;9.660;2022-11-15T08:49:39;6.05;;;3.63;;
26920;SDS011;14483;47.844;9.660;2022-11-15T08:52:05;6.00;;;3.40;;
26920;SDS011;14483;47.844;9.660;2022-11-15T08:54:31;7.78;;;3.65;;
26920;SDS011;14483;47.844;9.660;2022-11-15T08:56:59;7.00;;;3.55;;
26920;SDS011;14483;47.844;9.660;2022-11-15T08:59:25;10.40;;;3.50;;
26920;SDS011;14483;47.844;9.660;2022-11-15T09:01:52;5.18;;;2.95;;
26920;SDS011;14483;47.844;9.660;2022-11-15T09:04:18;5.53;;;3.28;;
26920;SDS011;14483;47.844;9.660;2022-11-15T09:06:44;5.97;;;3.08;;
26920;SDS011;14483;47.844;9.660;2022-11-15T09:09:11;7.53;;;3.67;;
26920;SDS011;14483;47.844;9.660;2022-11-15T09:11:37;6.10;;;3.60;;
26920;SDS011;14483;47.844;9.660;2022-11-15T09:14:05;7.47;;;3.45;;
26920;SDS011;14483;47.844;9.660;2022-11-15T09:16:31;8.82;;;4.10;;
26920;SDS011;14483;47.844;9.660;2022-11-15T09:18:58;6.93;;;3.42;;
26920;SDS011;14483;47.844;9.660;2022-11-15T09:21:24;6.57;;;4.30;;
26920;SDS011;14483;47.844;9.660;2022-11-15T09:23:50;7.32;;;4.15;;
26920;SDS011;14483;47.844;9.660;2022-11-15T09:26:18;6.13;;;3.85;;
26920;SDS011;14483;47.844;9.660;2022-11-15T09:28:44;6.80;;;4.28;;
26920;SDS011;14483;47.844;9.660;2022-11-15T09:31:12;8.27;;;4.72;;
26920;SDS011;14483;47.844;9.660;2022-11-15T09:33:38;7.28;;;4.25;;
26920;SDS011;14483;47.844;9.660;2022-11-15T09:36:05;7.70;;;4.53;;
26920;SDS011;14483;47.844;9.660;2022-11-15T09:38:32;7.13;;;4.30;;
26920;SDS011;14483;47.844;9.660;2022-11-15T09:41:13;9.02;;;4.78;;
26920;SDS011;14483;47.844;9.660;2022-11-15T09:43:45;8.07;;;4.43;;
26920;SDS011;14483;47.844;9.660;2022-11-15T09:46:17;6.82;;;3.78;;
26920;SDS011;14483;47.844;9.660;2022-11-15T09:48:50;8.32;;;4.38;;
26920;SDS011;14483;47.844;9.660;2022-11-15T09:51:20;7.15;;;4.30;;
26920;SDS011;14483;47.844;9.660;2022-11-15T09:53:48;7.40;;;3.85;;
26920;SDS011;14483;47.844;9.660;2022-11-15T09:56:16;6.90;;;3.80;;
26920;SDS011;14483;47.844;9.660;2022-11-15T09:58:46;6.10;;;3.22;;
26920;SDS011;14483;47.844;9.660;2022-11-15T10:01:20;7.53;;;4.53;;
26920;SDS011;14483;47.844;9.660;2022-11-15T10:03:47;8.63;;;3.95;;
26920;SDS011;14483;47.844;9.660;2022-11-15T10:06:17;7.00;;;3.78;;
26920;SDS011;14483;47.844;9.660;2022-11-15T10:08:48;7.45;;;4.40;;
26920;SDS011;14483;47.844;9.660;2022-11-15T10:11:17;6.35;;;4.40;;
26920;SDS011;14483;47.844;9.660;2022-11-15T10:13:44;9.38;;;5.07;;
26920;SDS011;14483;47.844;9.660;2022-11-15T10:16:14;9.73;;;5.72;;
26920;SDS011;14483;47.844;9.660;2022-11-15T10:18:46;10.98;;;6.88;;
26920;SDS011;14483;47.844;9.660;2022-11-15T10:21:17;13.20;;;6.60;;
26920;SDS011;14483;47.844;9.660;2022-11-15T10:23:45;11.68;;;5.88;;
26920;SDS011;14483;47.844;9.660;2022-11-15T10:26:13;9.95;;;6.15;;
26920;SDS011;14483;47.844;9.660;2022-11-15T10:28:40;7.13;;;4.90;;
26920;SDS011;14483;47.844;9.660;2022-11-15T10:31:20;8.15;;;4.78;;
26920;SDS011;14483;47.844;9.660;2022-11-15T10:33:48;7.13;;;4.45;;
26920;SDS011;14483;47.844;9.660;2022-11-15T10:36:24;9.02;;;5.05;;
26920;SDS011;14483;47.844;9.660;2022-11-15T10:38:51;9.00;;;4.22;;
26920;SDS011;14483;47.844;9.660;2022-11-15T10:41:19;10.50;;;4.63;;
26920;SDS011;14483;47.844;9.660;2022-11-15T10:44:00;11.85;;;5.22;;
26920;SDS011;14483;47.844;9.660;2022-11-15T10:46:27;7.85;;;4.85;;
26920;SDS011;14483;47.844;9.660;2022-11-15T10:48:54;8.15;;;3.75;;
26920;SDS011;14483;47.844;9.660;2022-11-15T10:51:39;7.38;;;4.43;;
26920;SDS011;14483;47.844;9.660;2022-11-15T10:54:06;8.90;;;4.70;;
26920;SDS011;14483;47.844;9.660;2022-11-15T10:56:35;8.90;;;4.85;;
26920;SDS011;14483;47.844;9.660;2022-11-15T10:59:01;8.73;;;3.88;;
26920;SDS011;14483;47.844;9.660;2022-11-15T11:01:28;6.63;;;4.50;;
26920;SDS011;14483;47.844;9.660;2022-11-15T11:03:59;8.02;;;4.30;;
26920;SDS011;14483;47.844;9.660;2022-11-15T11:06:26;7.85;;;4.00;;
26920;SDS011;14483;47.844;9.660;2022-11-15T11:08:54;8.35;;;4.70;;
26920;SDS011;14483;47.844;9.660;2022-11-15T11:11:20;7.05;;;4.32;;
26920;SDS011;14483;47.844;9.660;2022-11-15T11:13:46;7.22;;;4.50;;
26920;SDS011;14483;47.844;9.660;2022-11-15T11:16:18;6.65;;;4.00;;
26920;SDS011;14483;47.844;9.660;2022-11-15T11:18:47;7.15;;;4.38;;
26920;SDS011;14483;47.844;9.660;2022-11-15T11:21:18;7.35;;;4.18;;
26920;SDS011;14483;47.844;9.660;2022-11-15T11:23:48;6.10;;;3.88;;
26920;SDS011;14483;47.844;9.660;2022-11-15T11:26:31;8.10;;;4.68;;
26920;SDS011;14483;47.844;9.660;2022-11-15T11:29:02;6.30;;;4.07;;
26920;SDS011;14483;47.844;9.660;2022-11-15T11:31:32;8.60;;;4.55;;
26920;SDS011;14483;47.844;9.660;2022-11-15T11:34:04;8.02;;;4.28;;
26920;SDS011;14483;47.844;9.660;2022-11-15T11:36:39;6.72;;;3.70;;
26920;SDS011;14483;47.844;9.660;2022-11-15T11:39:13;9.10;;;4.50;;
26920;SDS011;14483;47.844;9.660;2022-11-15T11:41:43;6.95;;;4.15;;
26920;SDS011;14483;47.844;9.660;2022-11-15T11:44:18;7.10;;;3.83;;
26920;SDS011;14483;47.844;9.660;2022-11-15T11:46:49;7.38;;;3.97;;
26920;SDS011;14483;47.844;9.660;2022-11-15T11:49:18;5.70;;;3.65;;
26920;SDS011;14483;47.844;9.660;2022-11-15T11:51:49;8.27;;;4.05;;
26920;SDS011;14483;47.844;9.660;2022-11-15T11:54:19;8.98;;;3.80;;
26920;SDS011;14483;47.844;9.660;2022-11-15T11:56:46;6.45;;;3.72;;
26920;SDS011;14483;47.844;9.660;2022-11-15T11:59:16;7.10;;;3.88;;
26920;SDS011;14483;47.844;9.660;2022-11-15T12:01:44;6.40;;;4.32;;
26920;SDS011;14483;47.844;9.660;2022-11-15T12:04:11;8.35;;;3.50;;
26920;SDS011;14483;47.844;9.660;2022-11-15T12:06:41;7.22;;;4.18;;
26920;SDS011;14483;47.844;9.660;2022-11-15T12:09:13;6.03;;;3.60;;
26920;SDS011;14483;47.844;9.660;2022-11-15T12:11:43;7.80;;;4.47;;
26920;SDS011;14483;47.844;9.660;2022-11-15T12:14:17;7.57;;;4.07;;
26920;SDS011;14483;47.844;9.660;2022-11-15T12:16:48;6.07;;;4.13;;
26920;SDS011;14483;47.844;9.660;2022-11-15T12:19:14;7.90;;;4.05;;
26920;SDS011;14483;47.844;9.660;2022-11-15T12:21:42;6.18;;;3.90;;
26920;SDS011;14483;47.844;9.660;2022-11-15T12:24:14;7.47;;;4.43;;
26920;SDS011;14483;47.844;9.660;2022-11-15T12:26:45;6.97;;;4.53;;
26920;SDS011;14483;47.844;9.660;2022-11-15T12:29:15;10.73;;;4.63;;
26920;SDS011;14483;47.844;9.660;2022-11-15T12:31:43;7.70;;;4.60;;
26920;SDS011;14483;47.844;9.660;2022-11-15T12:34:15;11.35;;;4.45;;
26920;SDS011;14483;47.844;9.660;2022-11-15T12:36:54;7.78;;;4.70;;
26920;SDS011;14483;47.844;9.660;2022-11-15T12:39:22;6.60;;;4.05;;
26920;SDS011;14483;47.844;9.660;2022-11-15T12:44:57;7.75;;;4.45;;
26920;SDS011;14483;47.844;9.660;2022-11-15T12:47:25;7.35;;;4.85;;
26920;SDS011;14483;47.844;9.660;2022-11-15T12:49:52;7.35;;;4.40;;
26920;SDS011;14483;47.844;9.660;2022-11-15T12:52:19;8.13;;;4.70;;
26920;SDS011;14483;47.844;9.660;2022-11-15T12:55:00;7.72;;;4.88;;
26920;SDS011;14483;47.844;9.660;2022-11-15T12:57:29;7.97;;;4.10;;
26920;SDS011;14483;47.844;9.660;2022-11-15T12:59:56;6.80;;;4.55;;
26920;SDS011;14483;47.844;9.660;2022-11-15T13:02:24;6.50;;;4.50;;
26920;SDS011;14483;47.844;9.660;2022-11-15T13:04:51;9.18;;;4.90;;
26920;SDS011;14483;47.844;9.660;2022-11-15T13:10:00;6.18;;;3.85;;
26920;SDS011;14483;47.844;9.660;2022-11-15T13:17:53;7.80;;;4.82;;
26920;SDS011;14483;47.844;9.660;2022-11-15T13:20:21;5.20;;;3.30;;
26920;SDS011;14483;47.844;9.660;2022-11-15T13:22:49;6.88;;;4.45;;
26920;SDS011;14483;47.844;9.660;2022-11-15T13:30:41;6.35;;;3.38;;
26920;SDS011;14483;47.844;9.660;2022-11-15T13:33:15;6.28;;;3.88;;
26920;SDS011;14483;47.844;9.660;2022-11-15T13:35:44;8.77;;;4.13;;
26920;SDS011;14483;47.844;9.660;2022-11-15T13:38:17;5.70;;;3.35;;
26920;SDS011;14483;47.844;9.660;2022-11-15T13:40:44;6.97;;;3.75;;
26920;SDS011;14483;47.844;9.660;2022-11-15T13:43:15;7.47;;;2.85;;
26920;SDS011;14483;47.844;9.660;2022-11-15T13:45:44;5.28;;;3.42;;
26920;SDS011;14483;47.844;9.660;2022-11-15T13:48:11;4.47;;;2.75;;
26920;SDS011;14483;47.844;9.660;2022-11-15T13:50:37;6.07;;;3.35;;
26920;SDS011;14483;47.844;9.660;2022-11-15T13:53:04;6.38;;;3.42;;
26920;SDS011;14483;47.844;9.660;2022-11-15T13:55:31;5.78;;;3.03;;
26920;SDS011;14483;47.844;9.660;2022-11-15T13:57:59;7.97;;;3.38;;
26920;SDS011;14483;47.844;9.660;2022-11-15T14:00:33;6.82;;;2.70;;
26920;SDS011;14483;47.844;9.660;2022-11-15T14:03:22;7.30;;;2.65;;
26920;SDS011;14483;47.844;9.660;2022-11-15T14:06:01;5.78;;;3.05;;
26920;SDS011;14483;47.844;9.660;2022-11-15T14:08:28;5.45;;;2.70;;
26920;SDS011;14483;47.844;9.660;2022-11-15T14:11:08;5.40;;;2.50;;
26920;SDS011;14483;47.844;9.660;2022-11-15T14:13:34;7.97;;;4.70;;
26920;SDS011;14483;47.844;9.660;2022-11-15T14:16:13;7.80;;;5.05;;
26920;SDS011;14483;47.844;9.660;2022-11-15T14:18:43;8.52;;;5.45;;
26920;SDS011;14483;47.844;9.660;2022-11-15T14:21:10;10.27;;;5.85;;
26920;SDS011;14483;47.844;9.660;2022-11-15T14:23:36;11.23;;;6.28;;
26920;SDS011;14483;47.844;9.660;2022-11-15T14:26:02;11.15;;;6.55;;
26920;SDS011;14483;47.844;9.660;2022-11-15T14:28:29;9.30;;;6.65;;
26920;SDS011;14483;47.844;9.660;2022-11-15T14:30:58;10.57;;;6.18;;
26920;SDS011;14483;47.844;9.660;2022-11-15T14:33:25;10.32;;;7.25;;
26920;SDS011;14483;47.844;9.660;2022-11-15T14:35:56;10.50;;;6.43;;
26920;SDS011;14483;47.844;9.660;2022-11-15T14:38:22;11.13;;;6.60;;
26920;SDS011;14483;47.844;9.660;2022-11-15T14:40:49;10.43;;;6.70;;
26920;SDS011;14483;47.844;9.660;2022-11-15T14:43:15;9.85;;;6.28;;
26920;SDS011;14483;47.844;9.660;2022-11-15T14:45:42;11.10;;;7.15;;
26920;SDS011;14483;47.844;9.660;2022-11-15T14:48:08;10.07;;;6.53;;
26920;SDS011;14483;47.844;9.660;2022-11-15T14:50:35;8.88;;;6.25;;
26920;SDS011;14483;47.844;9.660;2022-11-15T14:53:03;10.95;;;6.07;;
26920;SDS011;14483;47.844;9.660;2022-11-15T14:55:30;10.05;;;6.80;;
26920;SDS011;14483;47.844;9.660;2022-11-15T14:57:59;11.05;;;5.68;;
26920;SDS011;14483;47.844;9.660;2022-11-15T15:00:27;9.15;;;6.22;;
26920;SDS011;14483;47.844;9.660;2022-11-15T15:02:54;17.05;;;6.80;;
26920;SDS011;14483;47.844;9.660;2022-11-15T15:05:21;10.82;;;6.85;;
26920;SDS011;14483;47.844;9.660;2022-11-15T15:07:48;12.00;;;7.07;;
26920;SDS011;14483;47.844;9.660;2022-11-15T15:10:16;11.25;;;6.95;;
26920;SDS011;14483;47.844;9.660;2022-11-15T15:12:42;9.73;;;6.68;;
26920;SDS011;14483;47.844;9.660;2022-11-15T15:15:11;15.13;;;7.60;;
26920;SDS011;14483;47.844;9.660;2022-11-15T15:17:38;18.17;;;8.88;;